sensor_id;sensor_type;location;lat;lon;timestamp;temperature;humidity
12374;DHT22;6251;51.762;8.660;2024-03-25T00:09:58;4.50;99.90
12374;DHT22;6251;51.762;8.660;2024-03-25T02:02:16;4.50;99.90
12374;DHT22;6251;51.762;8.660;2024-03-25T02:12:17;4.50;99.90
12374;DHT22;6251;51.762;8.660;2024-03-25T03:53:51;4.50;99.90
12374;DHT22;6251;51.762;8.660;2024-03-25T05:05:20;4.30;99.90
12374;DHT22;6251;51.762;8.660;2024-03-25T05:15:21;4.30;99.90
12374;DHT22;6251;51.762;8.660;2024-03-25T05:25:21;4.20;99.90
12374;DHT22;6251;51.762;8.660;2024-03-25T05:35:29;4.20;99.90
12374;DHT22;6251;51.762;8.660;2024-03-25T05:45:31;4.20;99.90
12374;DHT22;6251;51.762;8.660;2024-03-25T05:55:31;4.20;99.90
12374;DHT22;6251;51.762;8.660;2024-03-25T06:05:32;4.20;99.90
12374;DHT22;6251;51.762;8.660;2024-03-25T06:15:32;4.30;99.90
12374;DHT22;6251;51.762;8.660;2024-03-25T06:25:33;4.30;99.90
12374;DHT22;6251;51.762;8.660;2024-03-25T06:35:35;4.40;99.90
12374;DHT22;6251;51.762;8.660;2024-03-25T06:45:36;4.50;99.90
12374;DHT22;6251;51.762;8.660;2024-03-25T06:55:37;4.60;99.90
12374;DHT22;6251;51.762;8.660;2024-03-25T07:05:37;4.80;99.90
12374;DHT22;6251;51.762;8.660;2024-03-25T07:15:38;4.90;99.90
12374;DHT22;6251;51.762;8.660;2024-03-25T07:25:39;5.00;99.90
12374;DHT22;6251;51.762;8.660;2024-03-25T07:35:40;5.00;99.90
12374;DHT22;6251;51.762;8.660;2024-03-25T07:45:41;5.20;99.90
12374;DHT22;6251;51.762;8.660;2024-03-25T07:55:42;5.20;99.90
12374;DHT22;6251;51.762;8.660;2024-03-25T08:05:43;5.60;99.90
12374;DHT22;6251;51.762;8.660;2024-03-25T08:15:43;5.80;99.90
12374;DHT22;6251;51.762;8.660;2024-03-25T08:25:44;6.00;99.90
12374;DHT22;6251;51.762;8.660;2024-03-25T08:35:45;6.30;99.90
12374;DHT22;6251;51.762;8.660;2024-03-25T08:45:45;6.50;99.90
12374;DHT22;6251;51.762;8.660;2024-03-25T08:55:47;6.60;99.90
12374;DHT22;6251;51.762;8.660;2024-03-25T09:05:48;6.60;99.90
12374;DHT22;6251;51.762;8.660;2024-03-25T09:15:48;6.50;99.90
12374;DHT22;6251;51.762;8.660;2024-03-25T09:25:53;6.40;99.90
12374;DHT22;6251;51.762;8.660;2024-03-25T09:35:53;6.80;99.90
12374;DHT22;6251;51.762;8.660;2024-03-25T09:45:55;7.40;99.90
12374;DHT22;6251;51.762;8.660;2024-03-25T09:55:59;7.40;99.90
12374;DHT22;6251;51.762;8.660;2024-03-25T10:06:00;7.30;99.90
12374;DHT22;6251;51.762;8.660;2024-03-25T10:16:02;7.10;99.90
12374;DHT22;6251;51.762;8.660;2024-03-25T10:26:03;7.10;99.90
12374;DHT22;6251;51.762;8.660;2024-03-25T10:36:04;7.30;99.90
12374;DHT22;6251;51.762;8.660;2024-03-25T10:46:05;7.40;99.90
12374;DHT22;6251;51.762;8.660;2024-03-25T10:56:06;7.40;99.90
12374;DHT22;6251;51.762;8.660;2024-03-25T11:06:07;7.40;99.90
12374;DHT22;6251;51.762;8.660;2024-03-25T11:16:08;7.00;99.90
12374;DHT22;6251;51.762;8.660;2024-03-25T11:26:25;7.00;99.90
12374;DHT22;6251;51.762;8.660;2024-03-25T11:36:27;7.50;99.90
12374;DHT22;6251;51.762;8.660;2024-03-25T11:46:31;8.20;99.90
12374;DHT22;6251;51.762;8.660;2024-03-25T11:56:32;8.90;99.90
12374;DHT22;6251;51.762;8.660;2024-03-25T12:06:32;9.10;99.90
12374;DHT22;6251;51.762;8.660;2024-03-25T12:16:33;8.90;99.90
12374;DHT22;6251;51.762;8.660;2024-03-25T12:26:34;9.20;99.90
12374;DHT22;6251;51.762;8.660;2024-03-25T12:36:36;9.60;99.90
12374;DHT22;6251;51.762;8.660;2024-03-25T12:46:36;9.80;99.90
12374;DHT22;6251;51.762;8.660;2024-03-25T12:56:37;10.00;99.90
12374;DHT22;6251;51.762;8.660;2024-03-25T13:06:37;10.10;99.90
12374;DHT22;6251;51.762;8.660;2024-03-25T13:16:41;9.80;99.90
12374;DHT22;6251;51.762;8.660;2024-03-25T13:26:42;9.90;99.90
12374;DHT22;6251;51.762;8.660;2024-03-25T13:36:42;10.30;99.90
12374;DHT22;6251;51.762;8.660;2024-03-25T13:46:43;10.50;99.90
12374;DHT22;6251;51.762;8.660;2024-03-25T13:56:44;10.70;99.90
12374;DHT22;6251;51.762;8.660;2024-03-25T14:06:45;10.40;99.90
12374;DHT22;6251;51.762;8.660;2024-03-25T14:16:46;10.30;99.90
12374;DHT22;6251;51.762;8.660;2024-03-25T14:26:47;10.00;99.90
12374;DHT22;6251;51.762;8.660;2024-03-25T14:36:47;10.10;99.90
12374;DHT22;6251;51.762;8.660;2024-03-25T14:46:48;10.00;99.90
12374;DHT22;6251;51.762;8.660;2024-03-25T14:56:49;10.10;99.90
12374;DHT22;6251;51.762;8.660;2024-03-25T15:06:49;10.50;99.90
12374;DHT22;6251;51.762;8.660;2024-03-25T15:16:50;10.70;99.90
12374;DHT22;6251;51.762;8.660;2024-03-25T15:26:51;10.70;99.90
12374;DHT22;6251;51.762;8.660;2024-03-25T15:36:51;10.30;99.90
12374;DHT22;6251;51.762;8.660;2024-03-25T15:46:53;10.10;99.90
12374;DHT22;6251;51.762;8.660;2024-03-25T15:56:54;10.00;99.90
12374;DHT22;6251;51.762;8.660;2024-03-25T16:06:54;10.30;99.90
12374;DHT22;6251;51.762;8.660;2024-03-25T16:16:55;13.00;99.90
12374;DHT22;6251;51.762;8.660;2024-03-25T16:26:55;15.00;99.90
12374;DHT22;6251;51.762;8.660;2024-03-25T16:36:56;14.50;99.90
12374;DHT22;6251;51.762;8.660;2024-03-25T16:46:56;13.90;99.90
12374;DHT22;6251;51.762;8.660;2024-03-25T16:56:57;12.60;99.90
12374;DHT22;6251;51.762;8.660;2024-03-25T17:06:58;12.10;99.90
12374;DHT22;6251;51.762;8.660;2024-03-25T17:16:58;11.50;99.90
12374;DHT22;6251;51.762;8.660;2024-03-25T17:26:59;10.60;99.90
12374;DHT22;6251;51.762;8.660;2024-03-25T17:36:59;9.90;99.90
12374;DHT22;6251;51.762;8.660;2024-03-25T17:47:01;9.30;99.90
12374;DHT22;6251;51.762;8.660;2024-03-25T17:57:02;8.70;99.90
12374;DHT22;6251;51.762;8.660;2024-03-25T18:07:03;8.20;99.90
12374;DHT22;6251;51.762;8.660;2024-03-25T18:17:04;7.70;99.90
12374;DHT22;6251;51.762;8.660;2024-03-25T18:27:04;7.40;99.90
12374;DHT22;6251;51.762;8.660;2024-03-25T18:37:05;7.10;99.90
12374;DHT22;6251;51.762;8.660;2024-03-25T18:47:06;6.80;99.90
12374;DHT22;6251;51.762;8.660;2024-03-25T18:57:07;6.50;99.90
12374;DHT22;6251;51.762;8.660;2024-03-25T19:07:07;6.30;99.90
12374;DHT22;6251;51.762;8.660;2024-03-25T19:17:08;5.90;99.90
12374;DHT22;6251;51.762;8.660;2024-03-25T19:27:09;5.70;99.90
12374;DHT22;6251;51.762;8.660;2024-03-25T19:37:09;5.60;99.90
12374;DHT22;6251;51.762;8.660;2024-03-25T19:47:10;5.40;99.90
12374;DHT22;6251;51.762;8.660;2024-03-25T19:57:10;5.20;99.90
12374;DHT22;6251;51.762;8.660;2024-03-25T20:07:11;5.00;99.90
12374;DHT22;6251;51.762;8.660;2024-03-25T20:17:11;4.80;99.90
12374;DHT22;6251;51.762;8.660;2024-03-25T20:27:12;4.60;99.90
12374;DHT22;6251;51.762;8.660;2024-03-25T20:37:12;4.40;99.90
12374;DHT22;6251;51.762;8.660;2024-03-25T20:47:13;4.20;99.90
12374;DHT22;6251;51.762;8.660;2024-03-25T20:57:14;4.10;99.90
12374;DHT22;6251;51.762;8.660;2024-03-25T21:07:14;3.90;99.90
12374;DHT22;6251;51.762;8.660;2024-03-25T21:17:15;3.80;99.90
12374;DHT22;6251;51.762;8.660;2024-03-25T21:27:16;3.70;99.90
12374;DHT22;6251;51.762;8.660;2024-03-25T21:37:16;3.60;99.90
12374;DHT22;6251;51.762;8.660;2024-03-25T21:47:17;3.40;99.90
12374;DHT22;6251;51.762;8.660;2024-03-25T21:57:18;3.30;99.90
